createdAt,value
2023-01-20T00:00:32.978Z,17.88
2023-01-20T00:03:02.571Z,18.52
2023-01-20T00:05:31.499Z,18.63
2023-01-20T00:08:03.023Z,18.13
2023-01-20T00:10:32.179Z,18.45
2023-01-20T00:13:01.460Z,17.85
2023-01-20T00:15:38.908Z,18.48
2023-01-20T00:20:51.169Z,18.10
2023-01-20T00:23:26.832Z,17.58
2023-01-20T00:25:56.463Z,16.90
2023-01-20T00:28:25.714Z,17.27
2023-01-20T00:30:55.026Z,18.25
2023-01-20T00:33:24.803Z,18.73
2023-01-20T00:35:54.689Z,18.63
2023-01-20T00:38:24.117Z,19.38
2023-01-20T00:40:56.887Z,18.73
2023-01-20T00:43:26.454Z,19.50
2023-01-20T00:45:55.500Z,21.08
2023-01-20T00:48:24.705Z,20.42
2023-01-20T00:50:54.233Z,19.42
2023-01-20T00:53:24.281Z,21.02
2023-01-20T00:55:53.179Z,21.02
2023-01-20T00:58:22.607Z,20.48
2023-01-20T01:00:52.287Z,20.30
2023-01-20T01:03:21.806Z,19.45
2023-01-20T01:05:50.820Z,19.77
2023-01-20T01:08:19.673Z,18.42
2023-01-20T01:10:51.414Z,19.23
2023-01-20T01:13:20.454Z,19.67
2023-01-20T01:15:50.443Z,18.20
2023-01-20T01:18:20.163Z,19.58
2023-01-20T01:20:49.105Z,19.33
2023-01-20T01:23:18.620Z,20.17
2023-01-20T01:25:48.125Z,20.63
2023-01-20T01:28:17.396Z,19.13
2023-01-20T01:30:51.047Z,18.60
2023-01-20T01:33:21.479Z,18.67
2023-01-20T01:36:13.722Z,18.33
2023-01-20T01:38:43.817Z,17.23
2023-01-20T01:41:14.217Z,17.08
2023-01-20T01:44:04.678Z,17.33
2023-01-20T01:46:34.331Z,17.17
2023-01-20T01:49:25.630Z,16.35
2023-01-20T01:52:10.167Z,17.23
2023-01-20T01:54:42.319Z,17.23
2023-01-20T01:57:12.418Z,16.85
2023-01-20T01:59:41.537Z,15.98
2023-01-20T02:02:11.084Z,16.08
2023-01-20T02:04:40.638Z,15.60
2023-01-20T02:07:17.572Z,15.85
2023-01-20T02:09:47.937Z,15.50
2023-01-20T02:12:18.949Z,15.20
2023-01-20T02:14:55.711Z,13.95
2023-01-20T02:17:35.095Z,14.65
2023-01-20T02:20:20.961Z,14.95
2023-01-20T02:22:56.650Z,15.38
2023-01-20T02:28:46.022Z,13.85
2023-01-20T02:31:45.565Z,14.60
2023-01-20T02:34:17.327Z,14.43
2023-01-20T02:37:01.499Z,14.10
2023-01-20T02:39:38.899Z,14.07
2023-01-20T02:42:48.004Z,13.63
2023-01-20T02:45:40.178Z,13.65
2023-01-20T02:48:21.933Z,13.65
2023-01-20T02:51:09.096Z,13.45
2023-01-20T02:53:55.634Z,14.65
2023-01-20T02:56:28.103Z,14.45
2023-01-20T02:59:03.218Z,13.48
2023-01-20T03:01:55.423Z,14.50
2023-01-20T03:04:28.565Z,14.45
2023-01-20T03:06:58.729Z,13.93
2023-01-20T03:09:33.894Z,14.40
2023-01-20T03:12:06.846Z,15.63
2023-01-20T03:14:36.099Z,15.70
2023-01-20T03:17:05.460Z,16.10
2023-01-20T03:19:35.205Z,16.08
2023-01-20T03:22:04.586Z,15.23
2023-01-20T03:24:33.555Z,15.43
2023-01-20T03:27:02.650Z,15.63
2023-01-20T03:29:33.767Z,14.73
2023-01-20T03:32:03.861Z,14.68
2023-01-20T03:34:34.220Z,13.32
2023-01-20T03:37:04.400Z,14.02
2023-01-20T03:39:34.035Z,13.38
2023-01-20T03:42:29.023Z,13.38
2023-01-20T03:45:09.201Z,12.98
2023-01-20T03:47:44.420Z,13.75
2023-01-20T03:50:19.545Z,12.47
2023-01-20T03:53:07.524Z,12.13
2023-01-20T03:55:53.612Z,12.75
2023-01-20T03:58:26.695Z,13.27
2023-01-20T04:00:58.451Z,13.07
2023-01-20T04:03:32.840Z,12.32
2023-01-20T04:06:02.725Z,12.35
2023-01-20T04:08:36.577Z,12.00
2023-01-20T04:11:07.333Z,12.05
2023-01-20T04:13:36.490Z,11.80
2023-01-20T04:16:07.404Z,12.38
2023-01-20T04:18:36.452Z,11.02
2023-01-20T04:21:05.874Z,13.77
2023-01-20T04:23:38.738Z,16.10
2023-01-20T04:26:07.948Z,14.95
2023-01-20T04:28:36.816Z,14.38
2023-01-20T04:31:06.552Z,14.77
2023-01-20T04:33:39.696Z,15.52
2023-01-20T04:36:09.513Z,14.77
2023-01-20T04:38:38.802Z,15.70
2023-01-20T04:41:08.542Z,15.45
2023-01-20T04:43:38.830Z,14.77
2023-01-20T04:46:07.963Z,15.05
2023-01-20T04:48:37.339Z,14.70
2023-01-20T04:51:07.656Z,15.15
2023-01-20T04:53:37.680Z,13.77
2023-01-20T04:56:13.073Z,14.55
2023-01-20T04:58:42.791Z,13.65
2023-01-20T05:01:12.233Z,13.75
2023-01-20T05:03:41.437Z,13.48
2023-01-20T05:06:13.652Z,14.00
2023-01-20T05:08:42.916Z,14.48
2023-01-20T05:11:12.279Z,13.55
2023-01-20T05:13:41.836Z,12.40
2023-01-20T05:16:11.705Z,14.18
2023-01-20T05:18:41.926Z,12.35
2023-01-20T05:21:11.480Z,12.75
2023-01-20T05:23:40.691Z,12.40
2023-01-20T05:26:12.490Z,12.52
2023-01-20T05:28:43.631Z,12.60
2023-01-20T05:31:14.337Z,13.43
2023-01-20T05:33:43.835Z,11.80
2023-01-20T05:36:14.117Z,13.18
2023-01-20T05:38:43.097Z,12.85
2023-01-20T05:41:13.198Z,13.13
2023-01-20T05:43:42.883Z,12.95
2023-01-20T05:46:12.423Z,13.18
2023-01-20T05:48:41.331Z,12.68
2023-01-20T05:51:10.597Z,12.52
2023-01-20T05:53:40.080Z,13.60
2023-01-20T05:56:09.299Z,11.77
2023-01-20T05:58:38.329Z,13.13
2023-01-20T06:01:12.255Z,14.23
2023-01-20T06:03:41.852Z,13.35
2023-01-20T06:06:15.205Z,14.75
2023-01-20T06:08:44.553Z,13.65
2023-01-20T06:11:15.173Z,14.63
2023-01-20T06:13:44.782Z,13.27
2023-01-20T06:16:13.702Z,13.00
2023-01-20T06:18:43.565Z,13.50
2023-01-20T06:21:13.220Z,13.85
2023-01-20T06:23:42.963Z,13.77
2023-01-20T06:26:15.267Z,14.55
2023-01-20T06:28:44.941Z,13.30
2023-01-20T06:31:16.405Z,14.20
2023-01-20T06:33:46.092Z,12.75
2023-01-20T06:36:18.215Z,14.10
2023-01-20T06:38:51.151Z,12.35
2023-01-20T06:41:21.379Z,12.43
2023-01-20T06:43:51.930Z,12.52
2023-01-20T06:46:21.536Z,11.75
2023-01-20T06:48:50.619Z,12.27
2023-01-20T06:51:22.431Z,12.18
2023-01-20T06:53:52.521Z,11.20
2023-01-20T06:56:22.337Z,10.90
2023-01-20T06:58:51.839Z,11.27
2023-01-20T07:01:26.939Z,10.38
2023-01-20T07:03:57.003Z,10.10
2023-01-20T07:06:33.332Z,10.60
2023-01-20T07:09:03.083Z,10.80
2023-01-20T07:11:32.177Z,10.65
2023-01-20T07:14:02.021Z,9.98
2023-01-20T07:16:32.065Z,9.25
2023-01-20T07:19:02.147Z,10.00
2023-01-20T07:21:31.657Z,9.57
2023-01-20T07:24:04.285Z,9.93
2023-01-20T07:26:33.622Z,9.05
2023-01-20T07:29:02.979Z,9.68
2023-01-20T07:31:32.771Z,9.25
2023-01-20T07:34:02.241Z,9.35
2023-01-20T07:36:32.391Z,8.55
2023-01-20T07:39:01.371Z,7.43
2023-01-20T07:41:30.410Z,8.15
2023-01-20T07:43:59.239Z,8.68
2023-01-20T07:46:28.769Z,8.43
2023-01-20T07:48:58.308Z,8.35
2023-01-20T07:51:27.494Z,9.23
2023-01-20T07:53:57.574Z,8.23
2023-01-20T07:56:28.567Z,8.30
2023-01-20T07:58:57.756Z,7.90
2023-01-20T08:01:29.061Z,9.50
2023-01-20T08:03:58.865Z,8.48
2023-01-20T08:06:28.815Z,8.40
2023-01-20T08:09:02.691Z,7.75
2023-01-20T08:11:35.347Z,7.93
2023-01-20T08:14:04.322Z,8.70
2023-01-20T08:16:33.806Z,8.25
2023-01-20T08:19:03.796Z,8.90
2023-01-20T08:21:33.356Z,8.82
2023-01-20T08:24:05.366Z,8.32
2023-01-20T08:26:35.414Z,9.27
2023-01-20T08:29:11.793Z,9.57
2023-01-20T08:31:42.240Z,8.23
2023-01-20T08:34:11.406Z,8.65
2023-01-20T08:36:41.243Z,8.90
2023-01-20T08:39:11.904Z,8.98
2023-01-20T08:41:43.135Z,8.35
2023-01-20T08:44:13.084Z,9.10
2023-01-20T08:46:42.806Z,8.82
2023-01-20T08:49:14.538Z,8.00
2023-01-20T08:51:44.728Z,7.85
2023-01-20T08:54:15.772Z,8.45
2023-01-20T08:56:44.774Z,7.30
2023-01-20T08:59:13.840Z,8.82
2023-01-20T09:01:44.339Z,8.70
2023-01-20T09:04:14.100Z,7.53
2023-01-20T09:06:45.583Z,7.93
2023-01-20T09:09:15.442Z,8.07
2023-01-20T09:11:52.117Z,7.15
2023-01-20T09:14:22.072Z,7.18
2023-01-20T09:16:51.443Z,7.40
2023-01-20T09:19:20.410Z,7.88
2023-01-20T09:21:49.744Z,6.55
2023-01-20T09:24:19.119Z,6.97
2023-01-20T09:26:49.328Z,6.63
2023-01-20T09:29:22.811Z,7.00
2023-01-20T09:31:59.271Z,6.90
2023-01-20T09:34:30.021Z,7.28
2023-01-20T09:37:21.434Z,6.85
2023-01-20T09:40:23.107Z,7.10
2023-01-20T09:43:42.822Z,7.47
2023-01-20T09:46:18.008Z,6.95
2023-01-20T09:49:18.482Z,8.15
2023-01-20T09:52:13.144Z,7.18
2023-01-20T09:54:48.588Z,7.85
2023-01-20T09:57:17.753Z,9.03
2023-01-20T09:59:51.988Z,8.00
2023-01-20T10:02:29.802Z,7.45
2023-01-20T10:05:01.439Z,8.00
2023-01-20T10:07:59.370Z,8.18
2023-01-20T10:10:59.945Z,8.88
2023-01-20T10:13:47.896Z,10.30
2023-01-20T10:16:38.884Z,9.90
2023-01-20T10:19:36.245Z,8.98
2023-01-20T10:22:08.966Z,9.27
2023-01-20T10:24:55.765Z,9.52
2023-01-20T10:27:27.177Z,9.68
2023-01-20T10:30:09.475Z,10.15
2023-01-20T10:32:43.507Z,10.52
2023-01-20T10:35:21.207Z,10.90
2023-01-20T10:37:51.166Z,11.10
2023-01-20T10:40:44.570Z,10.55
2023-01-20T10:43:18.437Z,11.30
2023-01-20T10:46:15.733Z,11.23
2023-01-20T10:48:56.209Z,10.45
2023-01-20T10:51:39.841Z,10.02
2023-01-20T10:54:34.811Z,10.70
2023-01-20T10:57:08.496Z,9.52
2023-01-20T10:59:58.257Z,9.23
2023-01-20T11:02:35.677Z,9.35
2023-01-20T11:05:28.110Z,10.30
2023-01-20T11:07:58.093Z,10.43
2023-01-20T11:10:30.764Z,9.70
2023-01-20T11:13:01.733Z,10.02
2023-01-20T11:15:36.603Z,9.82
2023-01-20T11:18:19.246Z,9.25
2023-01-20T11:21:05.076Z,9.73
2023-01-20T11:23:43.177Z,9.15
2023-01-20T11:26:32.444Z,8.60
2023-01-20T11:29:10.715Z,8.75
2023-01-20T11:31:50.932Z,9.82
2023-01-20T11:34:51.420Z,9.93
2023-01-20T11:37:22.994Z,11.00
2023-01-20T11:39:53.751Z,10.18
2023-01-20T11:42:28.485Z,12.25
2023-01-20T11:45:20.306Z,13.82
2023-01-20T11:48:13.574Z,15.15
2023-01-20T11:50:51.840Z,18.83
2023-01-20T11:53:28.272Z,23.40
2023-01-20T11:55:59.344Z,26.00
2023-01-20T11:58:33.773Z,29.65
2023-01-20T12:01:07.930Z,33.00
2023-01-20T12:03:46.859Z,36.25
2023-01-20T12:06:24.469Z,38.85
2023-01-20T12:09:13.453Z,40.40
2023-01-20T12:12:28.789Z,39.85
2023-01-20T12:15:07.024Z,39.85
2023-01-20T12:17:44.901Z,38.05
2023-01-20T12:20:54.481Z,38.80
2023-01-20T12:23:48.001Z,37.83
2023-01-20T12:26:21.434Z,37.85
2023-01-20T12:28:57.419Z,37.53
2023-01-20T12:31:27.033Z,36.58
2023-01-20T12:34:19.312Z,36.45
2023-01-20T12:37:19.163Z,36.83
2023-01-20T12:39:51.199Z,36.53
2023-01-20T12:42:43.022Z,36.30
2023-01-20T12:45:26.533Z,37.13
2023-01-20T12:48:17.201Z,35.78
2023-01-20T12:50:46.852Z,35.72
2023-01-20T12:53:43.071Z,36.65
2023-01-20T12:56:31.629Z,38.17
2023-01-20T12:59:06.945Z,38.13
2023-01-20T13:01:51.107Z,39.95
2023-01-20T13:05:02.787Z,42.25
2023-01-20T13:07:43.738Z,45.13
2023-01-20T13:10:31.661Z,46.28
2023-01-20T13:13:19.770Z,45.15
2023-01-20T13:16:14.999Z,44.35
2023-01-20T13:19:12.469Z,43.83
2023-01-20T13:21:43.375Z,41.42
2023-01-20T13:24:31.112Z,41.70
2023-01-20T13:27:01.447Z,42.33
2023-01-20T13:30:07.201Z,41.65
2023-01-20T13:32:46.288Z,40.83
2023-01-20T13:35:24.830Z,41.08
2023-01-20T13:37:58.495Z,41.53
2023-01-20T13:40:47.391Z,44.88
2023-01-20T13:43:27.227Z,44.28
2023-01-20T13:46:08.322Z,46.30
2023-01-20T13:48:38.611Z,48.85
2023-01-20T13:51:17.302Z,48.58
2023-01-20T13:53:46.746Z,49.83
2023-01-20T13:56:33.948Z,51.50
2023-01-20T13:59:03.673Z,50.33
2023-01-20T14:01:33.645Z,50.63
2023-01-20T14:04:07.488Z,51.10
2023-01-20T14:06:37.142Z,54.72
2023-01-20T14:09:11.494Z,52.75
2023-01-20T14:11:40.825Z,51.22
2023-01-20T14:14:22.202Z,51.58
2023-01-20T14:16:58.495Z,52.33
2023-01-20T14:19:33.434Z,51.28
2023-01-20T14:22:05.187Z,50.20
2023-01-20T14:24:34.619Z,49.85
2023-01-20T14:27:28.793Z,48.63
2023-01-20T14:30:00.328Z,48.05
2023-01-20T14:32:33.416Z,45.95
2023-01-20T14:35:03.180Z,45.30
2023-01-20T14:37:36.883Z,45.70
2023-01-20T14:40:21.205Z,46.03
2023-01-20T14:43:18.954Z,44.47
2023-01-20T14:45:55.354Z,44.88
2023-01-20T14:51:06.526Z,46.42
2023-01-20T14:53:35.996Z,44.88
2023-01-20T14:56:09.273Z,44.35
2023-01-20T14:58:43.935Z,45.55
2023-01-20T15:01:27.919Z,45.55
2023-01-20T15:04:03.073Z,45.33
2023-01-20T15:06:32.338Z,45.42
2023-01-20T15:09:07.198Z,45.10
2023-01-20T15:11:37.581Z,46.88
2023-01-20T15:14:10.656Z,45.03
2023-01-20T15:16:48.435Z,43.15
2023-01-20T15:19:20.718Z,42.45
2023-01-20T15:21:59.875Z,44.25
2023-01-20T15:24:35.668Z,40.53
2023-01-20T15:27:26.356Z,41.78
2023-01-20T15:30:09.629Z,42.92
2023-01-20T15:32:39.482Z,42.00
2023-01-20T15:35:11.903Z,42.63
2023-01-20T15:37:42.498Z,41.78
2023-01-20T15:40:16.530Z,43.25
2023-01-20T15:42:46.089Z,42.97
2023-01-20T15:45:16.567Z,40.63
2023-01-20T15:47:46.889Z,41.65
2023-01-20T15:50:23.642Z,42.28
2023-01-20T15:52:52.871Z,41.45
2023-01-20T15:55:23.274Z,39.30
2023-01-20T15:57:53.260Z,38.53
2023-01-20T16:00:24.265Z,39.15
2023-01-20T16:02:54.021Z,38.10
2023-01-20T16:05:23.797Z,38.45
2023-01-20T16:07:56.843Z,37.63
2023-01-20T16:10:26.627Z,37.63
2023-01-20T16:12:55.722Z,37.75
2023-01-20T16:15:25.230Z,36.05
2023-01-20T16:17:55.130Z,36.13
2023-01-20T16:20:25.638Z,37.08
2023-01-20T16:22:59.628Z,36.35
2023-01-20T16:25:28.784Z,36.13
2023-01-20T16:28:05.795Z,35.75
2023-01-20T16:30:35.343Z,34.25
2023-01-20T16:33:04.686Z,37.75
2023-01-20T16:35:34.478Z,33.47
2023-01-20T16:38:04.334Z,36.25
2023-01-20T16:40:33.275Z,35.95
2023-01-20T16:43:02.083Z,35.65
2023-01-20T16:45:32.142Z,37.33
2023-01-20T16:48:01.874Z,36.47
2023-01-20T16:50:37.853Z,36.65
2023-01-20T16:53:07.494Z,36.40
2023-01-20T16:55:36.454Z,36.80
2023-01-20T16:58:07.487Z,36.88
2023-01-20T17:00:37.876Z,37.60
2023-01-20T17:03:07.094Z,35.83
2023-01-20T17:05:36.644Z,38.70
2023-01-20T17:08:06.356Z,39.05
2023-01-20T17:10:35.574Z,42.78
2023-01-20T17:13:10.754Z,47.42
2023-01-20T17:15:43.216Z,49.63
2023-01-20T17:18:12.328Z,52.75
2023-01-20T17:20:43.386Z,56.38
2023-01-20T17:23:12.735Z,55.60
2023-01-20T17:25:41.696Z,58.22
2023-01-20T17:28:11.218Z,57.70
2023-01-20T17:30:40.519Z,53.65
2023-01-20T17:33:10.127Z,54.05
2023-01-20T17:35:39.546Z,54.47
2023-01-20T17:38:09.013Z,51.85
2023-01-20T17:40:38.358Z,51.42
2023-01-20T17:43:07.822Z,49.28
2023-01-20T17:45:37.046Z,47.80
2023-01-20T17:48:06.887Z,48.67
2023-01-20T17:50:40.504Z,46.03
2023-01-20T17:53:10.278Z,44.72
2023-01-20T17:55:39.518Z,45.10
2023-01-20T17:58:10.547Z,46.42
2023-01-20T18:00:39.670Z,46.28
2023-01-20T18:03:10.040Z,43.22
2023-01-20T18:05:42.272Z,43.70
2023-01-20T18:08:12.986Z,42.67
2023-01-20T18:10:43.918Z,42.28
2023-01-20T18:13:16.603Z,42.40
2023-01-20T18:15:45.866Z,41.92
2023-01-20T18:18:17.765Z,41.40
2023-01-20T18:20:47.409Z,42.92
2023-01-20T18:23:16.362Z,41.55
2023-01-20T18:25:47.073Z,41.50
2023-01-20T18:28:16.713Z,41.13
2023-01-20T18:30:45.682Z,40.35
2023-01-20T18:33:26.644Z,40.22
2023-01-20T18:35:56.357Z,40.10
2023-01-20T18:38:28.399Z,37.88
2023-01-20T18:40:58.031Z,38.85
2023-01-20T18:43:30.559Z,37.83
2023-01-20T18:46:05.949Z,37.17
2023-01-20T18:48:38.622Z,37.05
2023-01-20T18:51:08.464Z,36.25
2023-01-20T18:53:42.680Z,37.35
2023-01-20T18:56:13.707Z,37.08
2023-01-20T18:58:48.315Z,34.45
2023-01-20T19:01:18.959Z,34.10
2023-01-20T19:03:49.370Z,34.17
2023-01-20T19:06:20.110Z,32.75
2023-01-20T19:08:49.363Z,33.67
2023-01-20T19:11:23.265Z,32.58
2023-01-20T19:13:54.527Z,32.28
2023-01-20T19:16:30.883Z,31.35
2023-01-20T19:19:03.679Z,31.45
2023-01-20T19:21:34.285Z,31.27
2023-01-20T19:24:06.398Z,30.55
2023-01-20T19:26:36.765Z,32.55
2023-01-20T19:29:17.612Z,31.25
2023-01-20T19:31:46.875Z,29.05
2023-01-20T19:34:18.378Z,28.33
2023-01-20T19:36:47.956Z,29.67
2023-01-20T19:39:17.384Z,29.65
2023-01-20T19:41:47.548Z,28.35
2023-01-20T19:44:19.217Z,29.50
2023-01-20T19:46:48.291Z,28.27
2023-01-20T19:49:18.001Z,27.60
2023-01-20T19:51:47.571Z,28.00
2023-01-20T19:54:16.734Z,27.20
2023-01-20T19:56:46.530Z,27.15
2023-01-20T19:59:21.709Z,25.25
2023-01-20T20:01:51.184Z,25.63
2023-01-20T20:04:22.999Z,26.13
2023-01-20T20:06:55.508Z,26.05
2023-01-20T20:09:27.238Z,24.50
2023-01-20T20:12:02.452Z,23.23
2023-01-20T20:14:37.929Z,23.87
2023-01-20T20:17:18.087Z,24.05
2023-01-20T20:19:50.288Z,24.00
2023-01-20T20:22:20.033Z,22.35
2023-01-20T20:24:49.653Z,22.50
2023-01-20T20:27:25.842Z,21.67
2023-01-20T20:30:01.507Z,21.52
2023-01-20T20:32:31.068Z,21.15
2023-01-20T20:35:06.988Z,21.58
2023-01-20T20:40:06.763Z,20.52
2023-01-20T20:42:35.802Z,20.10
2023-01-20T20:45:05.631Z,19.88
2023-01-20T20:47:34.475Z,20.55
2023-01-20T20:50:03.763Z,19.50
2023-01-20T20:52:36.616Z,20.52
2023-01-20T20:55:06.994Z,19.83
2023-01-20T20:57:43.304Z,19.92
2023-01-20T21:00:13.682Z,19.20
2023-01-20T21:02:43.975Z,20.10
2023-01-20T21:05:13.218Z,18.70
2023-01-20T21:07:43.895Z,18.45
2023-01-20T21:10:17.581Z,19.23
2023-01-20T21:12:47.805Z,18.85
2023-01-20T21:15:18.599Z,19.05
2023-01-20T21:17:47.425Z,18.00
2023-01-20T21:20:22.279Z,18.27
2023-01-20T21:22:51.436Z,17.47
2023-01-20T21:25:24.599Z,18.30
2023-01-20T21:27:55.006Z,18.90
2023-01-20T21:30:24.569Z,18.40
2023-01-20T21:32:54.800Z,17.98
2023-01-20T21:35:24.279Z,18.05
2023-01-20T21:37:53.907Z,17.42
2023-01-20T21:40:27.620Z,17.05
2023-01-20T21:43:17.154Z,17.77
2023-01-20T21:45:56.865Z,18.35
2023-01-20T21:51:35.505Z,17.65
2023-01-20T21:54:04.555Z,17.63
2023-01-20T21:56:36.635Z,17.42
2023-01-20T21:59:06.472Z,16.90
2023-01-20T22:01:39.566Z,15.88
2023-01-20T22:04:09.371Z,17.30
2023-01-20T22:06:40.095Z,16.67
2023-01-20T22:09:10.252Z,16.83
2023-01-20T22:11:39.456Z,17.20
2023-01-20T22:14:09.990Z,16.83
2023-01-20T22:16:39.620Z,17.60
2023-01-20T22:19:09.080Z,16.13
2023-01-20T22:21:39.760Z,16.60
2023-01-20T22:24:08.847Z,16.45
2023-01-20T22:26:38.433Z,15.32
2023-01-20T22:29:10.762Z,16.67
2023-01-20T22:31:40.231Z,16.38
2023-01-20T22:34:11.053Z,16.42
2023-01-20T22:36:40.875Z,15.90
2023-01-20T22:39:11.101Z,15.93
2023-01-20T22:41:47.129Z,16.02
2023-01-20T22:44:16.414Z,15.43
2023-01-20T22:46:45.859Z,15.50
2023-01-20T22:49:21.806Z,15.48
2023-01-20T22:51:58.152Z,15.13
2023-01-20T22:54:27.216Z,15.23
2023-01-20T22:56:56.519Z,14.15
2023-01-20T22:59:27.711Z,14.25
2023-01-20T23:01:56.868Z,15.05
2023-01-20T23:04:26.266Z,14.65
2023-01-20T23:06:57.063Z,15.38
2023-01-20T23:09:26.118Z,15.85
2023-01-20T23:11:55.425Z,14.45
2023-01-20T23:14:47.677Z,15.75
2023-01-20T23:17:16.903Z,15.85
2023-01-20T23:19:45.819Z,16.23
2023-01-20T23:22:16.618Z,15.68
2023-01-20T23:24:45.615Z,16.42
2023-01-20T23:27:15.703Z,16.15
2023-01-20T23:29:47.989Z,16.48
2023-01-20T23:32:17.563Z,16.95
2023-01-20T23:34:46.873Z,17.20
2023-01-20T23:37:16.144Z,16.42
2023-01-20T23:39:45.412Z,16.83
2023-01-20T23:42:14.691Z,16.88
2023-01-20T23:44:44.229Z,16.75
2023-01-20T23:47:14.871Z,17.58
2023-01-20T23:49:44.445Z,17.25
2023-01-20T23:52:14.642Z,16.70
2023-01-20T23:54:44.169Z,17.20
2023-01-20T23:57:16.369Z,17.15
2023-01-20T23:59:45.806Z,16.80
